Time;durP1;ratioP1;P1;durP2;ratioP2;P2;SDS_P1;SDS_P2;PMS_P1;PMS_P2;Temp;Humidity;BMP_temperature;BMP_pressure;BME280_temperature;BME280_humidity;BME280_pressure;Samples;Min_cycle;Max_cycle;Signal;HPM_P1;HPM_P2
2021/12/25 00:00:13;;;;;;;0.30;0.20;;;-1.10;82.40;;;;;;5012834;28;20069;-65
2021/12/25 00:02:39;;;;;;;0.40;0.40;;;-1.20;83.60;;;;;;5008651;28;20042;-67
2021/12/25 00:05:06;;;;;;;0.10;0.10;;;-1.20;84.10;;;;;;5012551;28;20042;-66
2021/12/25 00:07:32;;;;;;;2.53;0.20;;;-1.20;83.30;;;;;;5001590;28;20160;-66
2021/12/25 00:09:59;;;;;;;1.10;0.15;;;-1.30;83.80;;;;;;5011534;28;20109;-65
2021/12/25 00:12:26;;;;;;;0.40;0.20;;;-1.30;83.90;;;;;;5002930;28;20213;-66
2021/12/25 00:14:52;;;;;;;0.20;0.10;;;-1.40;85.40;;;;;;5002958;28;20026;-65
2021/12/25 00:17:17;;;;;;;0.20;0.20;;;-1.40;85.00;;;;;;5004302;28;20517;-64
2021/12/25 00:19:43;;;;;;;0.25;0.13;;;-1.40;84.50;;;;;;5007140;28;20111;-65
2021/12/25 00:22:10;;;;;;;0.85;0.15;;;-1.40;83.90;;;;;;5003403;28;20022;-65
2021/12/25 00:24:41;;;;;;;4.80;0.50;;;-1.50;84.30;;;;;;5008685;28;20501;-65
2021/12/25 00:27:23;;;;;;;0.15;0.15;;;-1.50;83.30;;;;;;5009164;28;20108;-68
2021/12/25 00:30:09;;;;;;;0.55;0.25;;;-1.60;83.30;;;;;;5011969;28;20117;-65
2021/12/25 00:32:55;;;;;;;0.10;0.10;;;-1.60;83.90;;;;;;5013899;28;20029;-65
2021/12/25 00:35:22;;;;;;;1.85;0.32;;;-1.70;83.60;;;;;;5017848;28;20143;-67
2021/12/25 00:37:48;;;;;;;0.30;0.20;;;-1.70;83.60;;;;;;5014169;28;20757;-64
2021/12/25 00:40:14;;;;;;;0.82;0.20;;;-1.80;84.20;;;;;;5009218;28;20038;-64
2021/12/25 00:42:40;;;;;;;0.55;0.20;;;-1.80;85.10;;;;;;5009069;28;20045;-66
2021/12/25 00:45:06;;;;;;;0.60;0.30;;;-1.80;84.70;;;;;;5009632;28;20696;-65
2021/12/25 00:47:32;;;;;;;1.55;0.20;;;-1.80;84.50;;;;;;5013511;28;20030;-65
2021/12/25 00:49:58;;;;;;;0.55;0.28;;;-1.80;84.50;;;;;;5007109;28;20040;-66
2021/12/25 00:52:23;;;;;;;0.13;0.10;;;-1.90;84.30;;;;;;5008031;28;20031;-65
2021/12/25 00:54:49;;;;;;;0.75;0.28;;;-1.90;85.10;;;;;;5001213;28;20132;-66
2021/12/25 00:57:15;;;;;;;0.57;0.15;;;-1.90;84.80;;;;;;5014298;28;20038;-66
2021/12/25 00:59:40;;;;;;;0.57;0.43;;;-2.00;84.90;;;;;;5007899;28;20069;-66
2021/12/25 01:02:06;;;;;;;0.20;0.20;;;-1.90;84.60;;;;;;5010149;28;20038;-65
2021/12/25 01:04:32;;;;;;;0.57;0.30;;;-2.00;84.90;;;;;;5003424;28;20628;-65
2021/12/25 01:06:58;;;;;;;0.17;0.17;;;-2.00;84.90;;;;;;5008886;28;20025;-65
2021/12/25 01:09:24;;;;;;;0.47;0.43;;;-2.00;84.60;;;;;;5007574;28;20021;-66
2021/12/25 01:11:52;;;;;;;1.05;0.20;;;-2.00;84.80;;;;;;5009824;28;20030;-65
2021/12/25 01:22:37;;;;;;;0.10;0.10;;;-2.10;84.30;;;;;;5012868;28;20026;-67
2021/12/25 01:30:19;;;;;;;0.30;0.20;;;-2.20;87.90;;;;;;5020289;28;20045;-65
2021/12/25 01:33:56;;;;;;;0.22;0.22;;;-2.20;87.00;;;;;;5004706;28;20033;-65
2021/12/25 01:48:38;;;;;;;0.20;0.20;;;-2.40;86.10;;;;;;5017121;28;20029;-65
2021/12/25 01:51:05;;;;;;;0.82;0.28;;;-2.40;86.10;;;;;;5021000;28;20501;-65
2021/12/25 01:53:30;;;;;;;0.47;0.38;;;-2.40;86.30;;;;;;5017540;28;20036;-64
2021/12/25 01:55:59;;;;;;;0.20;0.20;;;-2.50;86.00;;;;;;5017113;28;20026;-64
2021/12/25 01:58:25;;;;;;;2.78;0.30;;;-2.50;86.20;;;;;;5006467;28;20049;-65
2021/12/25 02:00:55;;;;;;;0.20;0.20;;;-2.50;85.50;;;;;;4988946;28;20026;-64
2021/12/25 02:03:23;;;;;;;0.47;0.20;;;-2.50;85.60;;;;;;5008644;28;20847;-65
2021/12/25 02:05:49;;;;;;;0.63;0.40;;;-2.50;86.00;;;;;;5013004;28;20037;-65
2021/12/25 02:08:16;;;;;;;1.27;0.40;;;-2.50;85.80;;;;;;5008174;28;20039;-64
2021/12/25 02:10:42;;;;;;;1.33;0.82;;;-2.60;85.80;;;;;;5005685;28;20819;-65
2021/12/25 02:13:09;;;;;;;0.70;0.35;;;-2.60;85.80;;;;;;5006391;28;20022;-64
2021/12/25 02:15:36;;;;;;;0.57;0.30;;;-2.60;86.00;;;;;;5002689;28;20033;-65
2021/12/25 02:23:24;;;;;;;0.93;0.38;;;-2.70;86.10;;;;;;5008110;28;21517;-66
2021/12/25 02:25:54;;;;;;;0.30;0.25;;;-2.60;86.10;;;;;;5002505;28;20044;-65
2021/12/25 02:28:21;;;;;;;0.40;0.30;;;-2.60;86.20;;;;;;5007422;28;20059;-64
2021/12/25 02:30:49;;;;;;;0.95;0.40;;;-2.70;86.00;;;;;;5012409;28;20075;-65
2021/12/25 02:33:16;;;;;;;2.95;0.57;;;-2.70;85.80;;;;;;5006268;28;20091;-67
2021/12/25 02:35:43;;;;;;;1.45;0.60;;;-2.70;86.00;;;;;;5006864;28;20060;-66
2021/12/25 02:38:09;;;;;;;1.23;0.50;;;-2.80;86.10;;;;;;4991552;28;20036;-65
2021/12/25 02:40:35;;;;;;;2.35;0.50;;;-2.80;86.50;;;;;;5007786;28;20414;-64
2021/12/25 02:43:01;;;;;;;2.28;0.60;;;-2.80;86.80;;;;;;5000350;28;20034;-65
2021/12/25 02:45:27;;;;;;;0.88;0.50;;;-2.80;87.10;;;;;;5002566;28;20028;-65
2021/12/25 02:47:55;;;;;;;3.95;0.60;;;-2.80;87.60;;;;;;5007194;28;20030;-64
2021/12/25 02:50:30;;;;;;;4.15;0.30;;;-2.80;87.80;;;;;;5021445;28;20099;-64
2021/12/25 02:53:00;;;;;;;0.17;0.17;;;-2.80;87.40;;;;;;5000501;28;20026;-63
2021/12/25 02:55:27;;;;;;;1.45;0.40;;;-2.90;87.20;;;;;;5004800;28;20044;-64
2021/12/25 02:57:54;;;;;;;0.52;0.35;;;-2.90;87.30;;;;;;5011142;28;20807;-64
2021/12/25 03:00:28;;;;;;;0.43;0.43;;;-2.90;87.20;;;;;;5015228;28;20033;-64
2021/12/25 03:02:55;;;;;;;0.82;0.50;;;-2.90;87.40;;;;;;4989195;28;20053;-64
2021/12/25 03:05:21;;;;;;;0.77;0.30;;;-3.00;88.70;;;;;;5000015;28;20037;-64
2021/12/25 03:07:47;;;;;;;2.13;0.30;;;-3.00;87.70;;;;;;5005396;28;20037;-64
2021/12/25 03:10:15;;;;;;;0.57;0.28;;;-3.00;87.50;;;;;;5000493;28;20040;-64
2021/12/25 03:13:17;;;;;;;0.52;0.38;;;-3.00;87.90;;;;;;5007938;28;20029;-64
2021/12/25 03:15:45;;;;;;;0.73;0.30;;;-3.00;88.00;;;;;;5007843;28;20048;-65
2021/12/25 03:18:12;;;;;;;1.58;0.50;;;-3.00;88.00;;;;;;5004802;28;20498;-65
2021/12/25 03:20:40;;;;;;;0.73;0.30;;;-3.00;87.90;;;;;;5002300;28;20042;-65
2021/12/25 03:23:07;;;;;;;1.65;0.50;;;-3.00;87.90;;;;;;5009644;28;20095;-65
2021/12/25 03:25:32;;;;;;;0.75;0.30;;;-3.00;87.70;;;;;;5012871;28;20025;-65
2021/12/25 03:27:58;;;;;;;1.10;0.30;;;-3.00;87.60;;;;;;5013075;28;20080;-64
2021/12/25 03:30:25;;;;;;;1.35;0.28;;;-3.00;87.60;;;;;;5008047;28;20108;-64
2021/12/25 03:32:51;;;;;;;0.88;0.45;;;-3.10;87.40;;;;;;5004954;28;20085;-64
2021/12/25 03:35:17;;;;;;;3.70;0.60;;;-3.10;87.20;;;;;;5002740;28;20034;-64
2021/12/25 03:37:43;;;;;;;0.43;0.22;;;-3.10;87.00;;;;;;5001676;28;20084;-64
2021/12/25 03:40:10;;;;;;;0.40;0.30;;;-3.10;87.00;;;;;;5003318;28;20037;-64
2021/12/25 03:42:36;;;;;;;3.22;0.50;;;-3.10;86.80;;;;;;5000081;28;20030;-64
2021/12/25 03:45:02;;;;;;;5.82;0.32;;;-3.10;86.80;;;;;;4992596;28;20025;-64
2021/12/25 03:47:36;;;;;;;0.43;0.40;;;-3.10;87.00;;;;;;5003321;28;20025;-65
2021/12/25 03:58:26;;;;;;;1.20;0.30;;;-3.30;83.60;;;;;;5008921;28;20029;-64
2021/12/25 04:00:59;;;;;;;;;;;-3.40;83.80;;;;;;5016947;28;20114;-64
2021/12/25 04:03:39;;;;;;;0.85;0.25;;;-3.50;84.60;;;;;;4993618;28;19917;-64
2021/12/25 04:06:09;;;;;;;0.35;0.30;;;-3.60;85.50;;;;;;5003089;28;20594;-65
2021/12/25 04:08:41;;;;;;;1.65;0.30;;;-3.60;86.50;;;;;;5008722;28;20083;-64
2021/12/25 04:11:13;;;;;;;0.57;0.30;;;-3.60;87.10;;;;;;5007832;28;20029;-64
2021/12/25 04:13:39;;;;;;;1.10;0.50;;;-3.60;87.00;;;;;;5006343;28;20030;-64
2021/12/25 04:16:05;;;;;;;1.40;0.40;;;-3.60;86.50;;;;;;5005186;28;20040;-64
2021/12/25 04:18:31;;;;;;;0.52;0.35;;;-3.70;86.50;;;;;;5002616;28;20501;-64
2021/12/25 04:20:56;;;;;;;0.20;0.20;;;-3.70;86.50;;;;;;5008178;28;20112;-64
2021/12/25 04:23:27;;;;;;;0.88;0.45;;;-3.70;87.00;;;;;;5002125;28;20033;-64
2021/12/25 04:25:57;;;;;;;0.65;0.22;;;-3.70;87.30;;;;;;5008527;28;20564;-64
2021/12/25 04:28:38;;;;;;;0.45;0.30;;;-3.70;87.60;;;;;;5004322;28;20890;-64
2021/12/25 04:48:20;;;;;;;1.05;0.60;;;-3.70;88.70;;;;;;5016214;28;20091;-64
2021/12/25 05:01:50;;;;;;;2.37;1.00;;;-3.90;88.50;;;;;;5002051;28;20032;-64
2021/12/25 05:04:43;;;;;;;2.67;0.88;;;-4.00;89.10;;;;;;5009192;28;20116;-64
2021/12/25 05:07:21;;;;;;;1.88;0.77;;;-4.00;88.10;;;;;;5002144;28;20029;-65
2021/12/25 05:09:47;;;;;;;3.13;0.82;;;-4.00;86.50;;;;;;5003415;28;20026;-65
2021/12/25 05:12:13;;;;;;;1.50;0.73;;;-4.10;86.00;;;;;;5007181;28;20021;-65
2021/12/25 05:14:39;;;;;;;0.35;0.35;;;-4.10;86.60;;;;;;5011273;28;20576;-65
2021/12/25 05:17:07;;;;;;;0.30;0.30;;;-4.10;86.50;;;;;;5017530;28;20527;-64
2021/12/25 05:19:33;;;;;;;1.58;0.50;;;-4.10;87.10;;;;;;5007618;28;20961;-65
2021/12/25 05:21:59;;;;;;;1.92;0.52;;;-4.10;87.70;;;;;;5007080;28;20030;-65
2021/12/25 05:24:27;;;;;;;0.82;0.57;;;-4.00;88.00;;;;;;5006132;28;20036;-65
2021/12/25 05:26:57;;;;;;;3.50;0.40;;;-4.00;88.00;;;;;;5003420;28;20026;-65
2021/12/25 05:29:25;;;;;;;2.47;0.47;;;-4.00;88.00;;;;;;5006019;28;20021;-64
2021/12/25 05:31:53;;;;;;;1.65;0.60;;;-4.00;88.00;;;;;;5016156;28;20029;-65
2021/12/25 05:34:21;;;;;;;1.77;0.63;;;-3.90;88.00;;;;;;4996965;28;20774;-64
2021/12/25 05:37:05;;;;;;;0.47;0.28;;;-3.90;88.00;;;;;;5004772;28;20053;-64
2021/12/25 05:39:50;;;;;;;0.88;0.35;;;-3.90;87.90;;;;;;5012189;28;20045;-65
2021/12/25 05:42:20;;;;;;;1.08;0.40;;;-3.90;87.70;;;;;;5010116;28;20104;-64
2021/12/25 05:44:47;;;;;;;2.08;0.40;;;-3.80;87.70;;;;;;5003192;28;20136;-64
2021/12/25 05:47:26;;;;;;;2.20;0.38;;;-3.80;87.30;;;;;;5012058;28;20025;-64
2021/12/25 05:49:59;;;;;;;1.08;0.40;;;-3.90;87.10;;;;;;5011825;28;20025;-64
2021/12/25 05:52:55;;;;;;;0.47;0.40;;;-3.90;87.20;;;;;;5007896;28;20021;-64
2021/12/25 05:55:27;;;;;;;1.00;0.93;;;-3.90;87.40;;;;;;5007465;28;20033;-64
2021/12/25 05:58:12;;;;;;;1.63;0.70;;;-3.90;87.60;;;;;;5011418;28;20575;-65
2021/12/25 06:00:49;;;;;;;0.90;0.70;;;-4.00;87.80;;;;;;5016966;28;20116;-65
2021/12/25 06:03:14;;;;;;;1.33;0.70;;;-4.00;88.20;;;;;;5008612;28;20038;-64
2021/12/25 06:05:40;;;;;;;1.77;1.08;;;-4.20;88.10;;;;;;5007454;28;20041;-64
2021/12/25 06:08:06;;;;;;;0.98;0.55;;;-4.20;89.20;;;;;;5014376;28;20032;-65
2021/12/25 06:10:32;;;;;;;1.33;0.75;;;-4.20;87.70;;;;;;5007533;28;20025;-65
2021/12/25 06:12:59;;;;;;;1.83;0.80;;;-4.20;86.20;;;;;;5000241;28;20096;-65
2021/12/25 06:15:28;;;;;;;1.65;0.65;;;-4.20;86.00;;;;;;5007083;28;20026;-64
2021/12/25 06:17:56;;;;;;;2.70;1.17;;;-4.30;87.90;;;;;;5006996;28;20041;-65
2021/12/25 06:20:34;;;;;;;1.70;0.80;;;-4.40;89.30;;;;;;5008970;28;20083;-65
2021/12/25 06:23:11;;;;;;;1.40;0.70;;;-4.30;89.70;;;;;;4997216;28;20034;-65
2021/12/25 06:25:55;;;;;;;1.63;0.55;;;-4.30;89.50;;;;;;5009105;28;20037;-65
2021/12/25 06:28:23;;;;;;;0.50;0.50;;;-4.20;88.70;;;;;;5002588;28;20820;-65
2021/12/25 06:31:07;;;;;;;0.40;0.35;;;-4.20;88.20;;;;;;5009224;28;20111;-65
2021/12/25 06:33:44;;;;;;;2.63;0.25;;;-4.10;87.80;;;;;;5012873;28;20079;-65
2021/12/25 06:36:20;;;;;;;1.45;0.20;;;-4.20;87.50;;;;;;5003042;28;20116;-64
2021/12/25 06:39:04;;;;;;;0.17;0.17;;;-4.10;87.50;;;;;;5000772;28;20041;-63
2021/12/25 06:41:34;;;;;;;0.32;0.32;;;-4.10;87.40;;;;;;5004564;28;20045;-65
2021/12/25 06:44:00;;;;;;;3.17;0.45;;;-4.20;87.80;;;;;;4993063;28;20109;-65
2021/12/25 06:46:43;;;;;;;6.22;2.05;;;-4.20;89.00;;;;;;5013759;28;20033;-64
2021/12/25 06:49:09;;;;;;;8.57;2.20;;;-4.30;88.30;;;;;;5017304;28;20032;-65
2021/12/25 06:51:56;;;;;;;4.72;1.55;;;-4.40;88.60;;;;;;5022264;28;20037;-65
2021/12/25 06:54:32;;;;;;;6.25;1.90;;;-4.40;88.60;;;;;;5005453;28;20033;-65
2021/12/25 06:57:18;;;;;;;6.22;2.55;;;-4.40;86.90;;;;;;5008983;28;20386;-65
2021/12/25 06:59:44;;;;;;;5.15;2.28;;;-4.40;86.00;;;;;;4993339;28;20037;-65
2021/12/25 07:02:12;;;;;;;6.55;2.53;;;-4.60;87.90;;;;;;5009801;28;20030;-65
2021/12/25 07:04:56;;;;;;;9.77;3.78;;;-4.50;86.40;;;;;;5004695;28;20103;-65
2021/12/25 07:07:40;;;;;;;18.70;6.97;;;-4.50;85.60;;;;;;5009479;28;20041;-65
2021/12/25 07:10:16;;;;;;;18.05;6.38;;;-4.50;85.80;;;;;;5005075;28;20042;-65
2021/12/25 07:13:02;;;;;;;6.55;2.58;;;-4.60;86.10;;;;;;5015274;28;20045;-65
2021/12/25 07:15:33;;;;;;;2.97;1.70;;;-4.50;86.50;;;;;;5015978;28;20397;-65
2021/12/25 07:18:22;;;;;;;2.88;1.20;;;-4.60;86.40;;;;;;5002296;28;20840;-65
2021/12/25 07:21:14;;;;;;;0.65;0.43;;;-4.60;87.00;;;;;;5015525;28;20116;-65
2021/12/25 07:24:14;;;;;;;0.40;0.40;;;-4.50;86.70;;;;;;5014456;28;20870;-65
2021/12/25 07:26:47;;;;;;;0.40;0.40;;;-4.60;86.30;;;;;;4999953;28;20457;-65
2021/12/25 07:29:33;;;;;;;1.27;0.50;;;-4.60;87.60;;;;;;5010938;28;20017;-65
2021/12/25 07:31:59;;;;;;;1.77;0.88;;;-4.60;87.10;;;;;;5013624;28;20026;-65
2021/12/25 07:34:25;;;;;;;1.50;0.60;;;-4.60;86.40;;;;;;5002928;28;20591;-65
2021/12/25 07:36:51;;;;;;;1.63;0.30;;;-4.60;86.00;;;;;;5001337;28;20052;-65
2021/12/25 07:39:16;;;;;;;0.32;0.32;;;-4.60;85.60;;;;;;4994874;28;20128;-65
2021/12/25 07:41:42;;;;;;;0.75;0.75;;;-4.60;86.30;;;;;;5006609;28;20041;-65
2021/12/25 07:44:14;;;;;;;6.50;2.17;;;-4.60;87.60;;;;;;5007158;28;20040;-65
2021/12/25 07:46:42;;;;;;;2.28;1.08;;;-4.70;88.70;;;;;;5006873;28;20596;-65
2021/12/25 07:49:15;;;;;;;3.33;1.42;;;-4.70;89.60;;;;;;5007788;28;20091;-65
2021/12/25 07:51:40;;;;;;;3.35;1.45;;;-4.50;89.20;;;;;;5008547;28;20543;-65
2021/12/25 07:54:06;;;;;;;2.97;1.10;;;-4.40;88.40;;;;;;5009154;28;20116;-65
2021/12/25 07:56:32;;;;;;;4.75;2.35;;;-4.30;88.10;;;;;;5011973;28;20033;-65
2021/12/25 07:58:58;;;;;;;12.98;5.82;;;-4.30;89.50;;;;;;5002687;28;20065;-65
2021/12/25 08:01:23;;;;;;;12.98;6.60;;;-4.30;90.00;;;;;;5002303;28;20064;-65
2021/12/25 08:03:49;;;;;;;8.75;4.28;;;-4.20;90.20;;;;;;5012243;28;20116;-65
2021/12/25 08:06:15;;;;;;;10.25;3.67;;;-4.20;90.00;;;;;;5009792;28;20021;-65
2021/12/25 08:08:41;;;;;;;7.28;2.88;;;-4.10;89.40;;;;;;5005141;28;20560;-65
2021/12/25 08:11:07;;;;;;;6.47;2.50;;;-4.00;89.00;;;;;;5006962;28;20041;-64
2021/12/25 08:13:33;;;;;;;5.90;2.17;;;-4.00;88.90;;;;;;5008068;28;20029;-65
2021/12/25 08:15:59;;;;;;;3.92;2.10;;;-4.00;89.10;;;;;;5004815;28;20504;-64
2021/12/25 08:18:24;;;;;;;2.38;1.60;;;-4.00;88.70;;;;;;5011406;28;20101;-64
2021/12/25 08:21:08;;;;;;;3.65;0.98;;;-3.90;87.20;;;;;;5005261;28;20045;-65
2021/12/25 08:23:54;;;;;;;3.20;0.93;;;-3.80;86.40;;;;;;5002388;28;20091;-65
2021/12/25 08:26:38;;;;;;;1.83;0.70;;;-3.70;86.00;;;;;;5001581;28;20828;-65
2021/12/25 08:29:23;;;;;;;1.30;0.60;;;-3.40;87.50;;;;;;5001495;28;20283;-65
2021/12/25 08:32:08;;;;;;;2.25;0.70;;;-2.80;85.90;;;;;;5002959;28;20037;-65
2021/12/25 08:34:52;;;;;;;0.73;0.57;;;-2.10;82.80;;;;;;5002113;28;20104;-65
2021/12/25 08:37:26;;;;;;;1.02;0.60;;;-1.90;81.10;;;;;;5007676;28;20079;-65
2021/12/25 08:39:53;;;;;;;0.80;0.38;;;-1.90;82.40;;;;;;5003817;28;20077;-65
2021/12/25 08:42:20;;;;;;;0.77;0.40;;;-2.00;83.00;;;;;;5003605;28;20085;-65
2021/12/25 08:45:38;;;;;;;0.60;0.60;;;-2.00;83.00;;;;;;5010124;28;20479;-65
2021/12/25 08:47:38;;;;;;;1.38;0.57;;;-1.90;82.40;;;;;;5015841;28;20045;-65
2021/12/25 08:50:08;;;;;;;3.50;1.60;;;-1.80;81.40;;;;;;5019169;28;20037;-65
2021/12/25 08:52:34;;;;;;;2.00;1.30;;;-1.90;82.00;;;;;;5009854;28;20025;-65
2021/12/25 08:55:00;;;;;;;2.88;1.40;;;-1.90;84.00;;;;;;5010741;28;20029;-65
2021/12/25 08:57:26;;;;;;;2.90;0.90;;;-1.90;84.10;;;;;;5013598;28;20535;-65
2021/12/25 08:59:54;;;;;;;2.15;0.95;;;-1.80;83.50;;;;;;5006268;28;20426;-65
2021/12/25 09:02:21;;;;;;;2.63;1.13;;;-1.70;83.20;;;;;;5007809;28;20044;-65
2021/12/25 09:04:50;;;;;;;1.20;0.82;;;-1.60;84.00;;;;;;5011348;28;20046;-65
2021/12/25 09:07:16;;;;;;;3.00;1.02;;;-1.20;82.30;;;;;;5007324;28;20033;-65
2021/12/25 09:09:42;;;;;;;9.88;3.97;;;-0.60;80.90;;;;;;5006258;28;20026;-65
2021/12/25 09:12:11;;;;;;;18.77;7.60;;;-0.10;79.20;;;;;;5013355;28;20030;-65
2021/12/25 09:14:37;;;;;;;6.65;2.58;;;0.50;77.60;;;;;;5011811;28;20783;-65
2021/12/25 09:17:05;;;;;;;8.15;2.22;;;1.20;74.80;;;;;;5008705;28;20044;-65
2021/12/25 09:19:30;;;;;;;8.57;3.22;;;2.30;71.00;;;;;;5011904;28;20048;-65
2021/12/25 09:21:57;;;;;;;5.60;2.20;;;3.40;65.40;;;;;;5011254;28;20025;-65
2021/12/25 09:24:24;;;;;;;3.78;2.20;;;4.40;62.80;;;;;;5019672;28;20029;-65
2021/12/25 09:26:49;;;;;;;5.00;2.90;;;5.30;58.80;;;;;;5009551;28;20382;-65
2021/12/25 09:29:16;;;;;;;5.65;2.88;;;6.10;54.40;;;;;;5005886;28;20030;-65
2021/12/25 09:31:41;;;;;;;4.57;2.45;;;6.70;52.50;;;;;;5009936;28;20033;-65
2021/12/25 09:34:08;;;;;;;4.57;2.22;;;7.20;51.30;;;;;;5014119;28;20037;-65
2021/12/25 09:36:34;;;;;;;3.25;1.67;;;7.70;49.80;;;;;;5011929;28;20033;-65
2021/12/25 09:39:03;;;;;;;2.40;1.50;;;7.90;48.50;;;;;;5004937;28;20042;-65
2021/12/25 09:41:30;;;;;;;4.05;1.70;;;7.80;49.20;;;;;;5005774;28;20146;-65
2021/12/25 09:43:56;;;;;;;3.47;1.55;;;7.60;47.20;;;;;;5005993;28;20037;-65
2021/12/25 09:46:22;;;;;;;3.50;1.50;;;7.10;49.00;;;;;;5008881;28;20152;-65
2021/12/25 09:48:50;;;;;;;2.67;1.50;;;6.20;51.80;;;;;;5012361;28;20102;-65
2021/12/25 09:51:17;;;;;;;4.55;1.77;;;5.30;53.40;;;;;;5010544;28;20034;-65
2021/12/25 09:53:42;;;;;;;4.40;1.50;;;4.70;55.40;;;;;;5013168;28;20057;-65
2021/12/25 09:56:08;;;;;;;2.45;1.30;;;4.10;57.60;;;;;;5009532;28;20109;-65
2021/12/25 09:58:34;;;;;;;3.13;1.05;;;3.60;59.60;;;;;;5009403;28;20136;-65
2021/12/25 10:01:00;;;;;;;2.20;1.00;;;3.30;61.30;;;;;;5006161;28;20037;-65
2021/12/25 10:03:42;;;;;;;3.97;1.10;;;3.20;62.00;;;;;;5008080;28;20025;-70
2021/12/25 10:06:08;;;;;;;1.65;1.23;;;3.10;64.20;;;;;;5013389;28;20029;-71
2021/12/25 10:08:38;;;;;;;2.72;1.10;;;3.20;62.10;;;;;;5007137;28;20439;-70
2021/12/25 10:11:04;;;;;;;3.10;1.15;;;3.40;61.10;;;;;;5013921;28;20336;-70
2021/12/25 10:13:39;;;;;;;2.10;1.25;;;3.70;62.00;;;;;;5003191;28;20033;-68
2021/12/25 10:16:28;;;;;;;1.95;0.82;;;4.40;60.10;;;;;;5014964;28;20036;-72
2021/12/25 10:19:12;;;;;;;4.00;1.50;;;5.80;56.50;;;;;;5015169;28;20437;-72
2021/12/25 10:21:37;;;;;;;2.30;1.35;;;7.30;55.20;;;;;;5010268;28;20125;-72
2021/12/25 10:24:16;;;;;;;5.57;3.22;;;9.00;47.50;;;;;;5015431;28;20037;-72
2021/12/25 10:26:47;;;;;;;2.63;1.63;;;9.90;46.60;;;;;;5017112;28;20037;-73
2021/12/25 10:29:29;;;;;;;5.25;1.58;;;11.10;44.30;;;;;;5010967;28;20041;-73
2021/12/25 10:31:58;;;;;;;2.28;1.45;;;12.00;42.80;;;;;;5010149;28;20025;-71
2021/12/25 10:34:28;;;;;;;3.25;1.30;;;12.10;40.00;;;;;;5015875;28;20041;-70
2021/12/25 10:37:06;;;;;;;1.98;1.00;;;11.50;40.10;;;;;;5008085;28;20041;-71
2021/12/25 10:39:32;;;;;;;2.80;1.20;;;10.60;42.00;;;;;;4991697;28;20024;-71
2021/12/25 10:42:12;;;;;;;2.63;1.23;;;9.80;44.00;;;;;;5012198;28;20030;-71
2021/12/25 10:44:42;;;;;;;4.03;1.20;;;9.10;45.90;;;;;;5010302;28;20040;-71
2021/12/25 10:47:20;;;;;;;1.85;1.08;;;8.30;47.60;;;;;;5017168;28;20045;-70
2021/12/25 10:49:49;;;;;;;2.20;1.33;;;7.60;48.30;;;;;;5003488;28;20371;-71
2021/12/25 10:52:29;;;;;;;2.90;1.30;;;6.80;52.60;;;;;;4988105;28;20816;-66
2021/12/25 10:55:04;;;;;;;1.95;1.10;;;6.20;52.60;;;;;;5011727;28;20029;-71
2021/12/25 10:57:42;;;;;;;3.22;1.55;;;5.60;52.20;;;;;;5013599;28;20045;-67
2021/12/25 11:00:11;;;;;;;5.70;1.75;;;5.10;53.50;;;;;;5004855;28;20029;-66
2021/12/25 11:02:42;;;;;;;3.58;1.52;;;4.50;54.60;;;;;;5001932;28;20123;-66
2021/12/25 11:05:27;;;;;;;4.10;2.00;;;4.00;57.10;;;;;;5002149;28;20029;-65
2021/12/25 11:08:13;;;;;;;9.38;3.53;;;3.80;58.00;;;;;;5012732;28;20034;-66
2021/12/25 11:10:48;;;;;;;7.57;3.38;;;3.60;58.30;;;;;;5006004;28;20026;-66
2021/12/25 11:13:25;;;;;;;5.20;1.85;;;3.70;58.20;;;;;;5008071;28;20037;-68
2021/12/25 11:16:01;;;;;;;3.80;1.90;;;3.90;56.20;;;;;;5004233;28;20041;-66
2021/12/25 11:18:27;;;;;;;2.47;1.45;;;3.80;56.60;;;;;;5015632;28;20089;-65
2021/12/25 11:20:53;;;;;;;2.85;1.10;;;3.50;56.20;;;;;;5004283;28;20824;-65
2021/12/25 11:23:21;;;;;;;2.08;1.13;;;3.10;57.60;;;;;;5013968;28;20490;-65
2021/12/25 11:25:47;;;;;;;1.83;0.90;;;2.70;58.30;;;;;;5010218;28;20539;-64
2021/12/25 11:28:18;;;;;;;2.38;1.38;;;2.40;61.20;;;;;;5009199;28;20061;-64
2021/12/25 11:30:47;;;;;;;1.52;0.65;;;2.20;62.00;;;;;;5011619;28;20120;-64
2021/12/25 11:33:13;;;;;;;0.63;0.52;;;2.00;61.50;;;;;;5008493;28;20080;-64
2021/12/25 11:35:40;;;;;;;2.92;0.55;;;1.80;60.20;;;;;;5009844;28;20029;-66
2021/12/25 11:38:07;;;;;;;0.85;0.50;;;1.70;60.80;;;;;;5005124;28;20131;-67
2021/12/25 11:40:40;;;;;;;2.88;0.80;;;1.60;61.70;;;;;;5010959;28;20057;-68
2021/12/25 11:43:06;;;;;;;1.98;0.77;;;1.50;63.00;;;;;;5006027;28;20040;-66
2021/12/25 11:45:37;;;;;;;6.47;2.00;;;1.40;62.60;;;;;;5001473;28;20443;-67
2021/12/25 11:48:21;;;;;;;2.38;0.82;;;1.40;62.80;;;;;;5007236;28;20883;-67
2021/12/25 11:50:50;;;;;;;1.85;0.88;;;1.40;60.70;;;;;;5005565;28;20112;-69
2021/12/25 11:53:25;;;;;;;10.50;0.70;;;1.30;61.90;;;;;;5005746;28;20040;-67
2021/12/25 11:58:39;;;;;;;1.27;0.68;;;1.20;61.60;;;;;;5006251;28;20140;-65
2021/12/25 12:01:38;;;;;;;3.53;0.60;;;1.20;62.70;;;;;;5012071;28;20037;-65
2021/12/25 12:04:19;;;;;;;0.73;0.50;;;1.10;59.90;;;;;;5010879;28;20484;-65
2021/12/25 12:06:47;;;;;;;1.17;0.63;;;1.10;60.80;;;;;;5012014;28;20032;-65
2021/12/25 12:09:19;;;;;;;2.28;0.60;;;1.10;64.50;;;;;;5005492;28;20508;-65
2021/12/25 12:12:15;;;;;;;1.75;0.75;;;1.10;66.00;;;;;;5011004;28;20754;-65
2021/12/25 12:15:11;;;;;;;2.05;0.85;;;1.10;65.70;;;;;;5009736;28;20057;-66
2021/12/25 12:17:58;;;;;;;1.85;0.88;;;1.10;64.90;;;;;;5010986;28;20112;-65
2021/12/25 12:20:41;;;;;;;1.35;0.50;;;1.10;62.40;;;;;;5017833;28;20936;-66
2021/12/25 12:26:11;;;;;;;1.55;0.98;;;0.90;67.40;;;;;;5004737;28;20050;-65
2021/12/25 12:28:49;;;;;;;1.25;0.75;;;0.90;65.80;;;;;;5011347;28;20700;-67
2021/12/25 12:31:35;;;;;;;2.50;0.63;;;0.90;66.60;;;;;;5006467;28;20471;-67
2021/12/25 12:34:01;;;;;;;0.70;0.70;;;0.90;65.90;;;;;;5004493;28;20034;-67
2021/12/25 12:36:27;;;;;;;1.38;0.63;;;0.80;65.30;;;;;;5004998;28;20512;-67
2021/12/25 12:39:12;;;;;;;1.58;0.82;;;0.80;66.50;;;;;;5012117;28;20045;-67
2021/12/25 12:41:49;;;;;;;4.07;0.80;;;0.80;66.20;;;;;;5006836;28;20513;-67
2021/12/25 12:44:23;;;;;;;4.22;0.82;;;0.90;66.10;;;;;;5008679;28;20038;-65
2021/12/25 12:46:55;;;;;;;0.95;0.68;;;0.80;66.20;;;;;;5014013;28;20109;-65
2021/12/25 12:49:45;;;;;;;4.53;0.98;;;0.90;66.30;;;;;;5009728;28;20528;-64
2021/12/25 12:52:16;;;;;;;4.88;0.90;;;0.90;68.70;;;;;;5011749;28;20026;-65
2021/12/25 12:54:55;;;;;;;1.75;0.90;;;1.00;67.70;;;;;;5008943;28;20132;-67
2021/12/25 12:57:30;;;;;;;1.95;1.05;;;1.00;66.80;;;;;;5008111;28;20042;-67
2021/12/25 13:00:19;;;;;;;2.10;1.30;;;1.00;67.40;;;;;;5011504;28;20100;-67
2021/12/25 13:02:57;;;;;;;2.53;0.90;;;0.90;66.50;;;;;;5011868;28;20109;-67
2021/12/25 13:05:31;;;;;;;10.93;6.32;;;0.90;67.70;;;;;;5010064;28;20039;-67
2021/12/25 13:08:00;;;;;;;6.60;4.97;;;0.80;67.20;;;;;;5007504;28;20037;-65
2021/12/25 13:10:36;;;;;;;5.07;3.08;;;0.80;66.60;;;;;;5008579;28;20029;-65
2021/12/25 13:13:13;;;;;;;6.18;3.00;;;0.70;66.70;;;;;;5003427;28;20026;-65
2021/12/25 13:15:42;;;;;;;1.45;0.80;;;0.70;68.10;;;;;;5001465;28;20126;-68
2021/12/25 13:18:09;;;;;;;1.52;0.80;;;0.60;67.20;;;;;;5010900;28;20402;-65
2021/12/25 13:20:44;;;;;;;1.95;0.75;;;0.70;68.30;;;;;;5014254;28;20037;-67
2021/12/25 13:23:17;;;;;;;1.80;1.10;;;0.70;66.20;;;;;;5010884;28;20136;-71
2021/12/25 13:25:57;;;;;;;5.90;0.70;;;0.70;65.70;;;;;;5013604;28;20156;-66
2021/12/25 13:28:25;;;;;;;3.95;1.50;;;0.70;67.20;;;;;;5009517;28;20936;-66
2021/12/25 13:31:01;;;;;;;2.95;0.68;;;0.60;68.60;;;;;;5009748;28;20029;-66
2021/12/25 13:33:29;;;;;;;1.83;0.80;;;0.60;67.40;;;;;;5004734;28;20483;-66
2021/12/25 13:36:06;;;;;;;1.33;0.60;;;0.60;68.20;;;;;;5007619;28;20433;-65
2021/12/25 13:38:46;;;;;;;0.90;0.55;;;0.50;68.10;;;;;;5015861;28;20564;-66
2021/12/25 13:41:15;;;;;;;1.33;0.70;;;0.50;68.80;;;;;;5009572;28;20139;-66
2021/12/25 13:43:41;;;;;;;1.42;0.60;;;0.40;69.20;;;;;;5013118;28;20042;-66
2021/12/25 13:46:07;;;;;;;1.35;0.50;;;0.40;67.30;;;;;;5010752;28;20030;-65
2021/12/25 13:48:37;;;;;;;1.48;0.60;;;0.40;68.40;;;;;;5008522;28;20030;-67
2021/12/25 13:51:03;;;;;;;2.30;0.50;;;0.40;68.90;;;;;;5009960;28;20034;-65
2021/12/25 13:53:31;;;;;;;1.70;0.68;;;0.40;69.00;;;;;;5013007;28;20034;-65
2021/12/25 13:56:05;;;;;;;0.55;0.40;;;0.40;66.80;;;;;;5014572;28;20466;-66
2021/12/25 13:58:30;;;;;;;1.33;0.40;;;0.30;68.40;;;;;;5008916;28;20037;-65
2021/12/25 14:00:56;;;;;;;1.33;0.60;;;0.30;70.30;;;;;;5009453;28;20033;-65
2021/12/25 14:03:25;;;;;;;2.25;0.55;;;0.20;69.30;;;;;;5010304;28;20033;-65
2021/12/25 14:05:53;;;;;;;0.98;0.50;;;0.20;69.00;;;;;;5011546;28;20146;-66
2021/12/25 14:08:25;;;;;;;1.00;0.50;;;0.10;68.40;;;;;;5011363;28;20110;-65
2021/12/25 14:10:58;;;;;;;1.30;0.40;;;0.10;69.80;;;;;;5009955;28;20898;-65
2021/12/25 14:13:27;;;;;;;1.05;0.40;;;0.00;71.10;;;;;;5009990;28;20468;-64
2021/12/25 14:15:55;;;;;;;0.73;0.50;;;-0.10;70.90;;;;;;5013646;28;20041;-64
2021/12/25 14:18:28;;;;;;;1.17;0.40;;;-0.10;70.40;;;;;;5007684;28;20038;-67
2021/12/25 14:20:54;;;;;;;1.77;1.00;;;-0.10;69.00;;;;;;5006662;28;20025;-68
2021/12/25 14:23:21;;;;;;;2.45;0.68;;;-0.10;70.10;;;;;;5012560;28;20084;-67
2021/12/25 14:26:00;;;;;;;2.83;0.50;;;-0.20;69.70;;;;;;5013711;28;20515;-67